createdAt,value
2018-11-06T00:02:20.127Z,29.73
2018-11-06T00:04:53.988Z,28.80
2018-11-06T00:07:22.263Z,29.93
2018-11-06T00:09:50.555Z,31.03
2018-11-06T00:12:18.824Z,30.57
2018-11-06T00:14:47.046Z,34.20
2018-11-06T00:17:15.375Z,33.23
2018-11-06T00:19:43.634Z,31.03
2018-11-06T00:22:12.119Z,29.43
2018-11-06T00:24:40.337Z,26.87
2018-11-06T00:27:08.764Z,29.47
2018-11-06T00:29:37.097Z,28.43
2018-11-06T00:32:05.215Z,31.20
2018-11-06T00:34:33.509Z,30.90
2018-11-06T00:37:01.969Z,30.80
2018-11-06T00:39:30.223Z,34.37
2018-11-06T00:41:58.302Z,32.80
2018-11-06T00:44:26.554Z,32.47
2018-11-06T00:46:54.671Z,33.87
2018-11-06T00:49:23.186Z,31.93
2018-11-06T00:51:51.423Z,31.40
2018-11-06T00:54:19.871Z,31.13
2018-11-06T00:56:48.012Z,31.83
2018-11-06T00:59:16.159Z,31.70
2018-11-06T01:01:44.318Z,29.20
2018-11-06T01:04:14.276Z,32.27
2018-11-06T01:06:42.579Z,32.30
2018-11-06T01:09:13.115Z,33.47
2018-11-06T01:11:42.342Z,33.17
2018-11-06T01:14:10.119Z,32.47
2018-11-06T01:16:39.046Z,32.47
2018-11-06T01:19:07.984Z,31.90
2018-11-06T01:21:36.283Z,29.87
2018-11-06T01:24:04.355Z,28.87
2018-11-06T01:26:32.890Z,23.63
2018-11-06T01:29:01.404Z,32.23
2018-11-06T01:31:29.407Z,30.10
2018-11-06T01:33:57.903Z,31.93
2018-11-06T01:36:26.139Z,32.53
2018-11-06T01:38:54.595Z,28.17
2018-11-06T01:41:22.939Z,29.93
2018-11-06T01:43:51.399Z,35.47
2018-11-06T01:46:19.623Z,35.50
2018-11-06T01:48:47.915Z,36.87
2018-11-06T01:51:16.216Z,36.83
2018-11-06T01:53:44.111Z,40.37
2018-11-06T01:56:12.569Z,39.00
2018-11-06T01:58:40.787Z,40.33
2018-11-06T02:01:09.089Z,41.03
2018-11-06T02:03:37.460Z,40.07
2018-11-06T02:06:05.871Z,40.47
2018-11-06T02:08:34.306Z,42.30
2018-11-06T02:11:02.460Z,38.73
2018-11-06T02:13:30.709Z,40.60
2018-11-06T02:15:59.184Z,41.27
2018-11-06T02:18:27.463Z,39.37
2018-11-06T02:20:55.951Z,40.03
2018-11-06T02:23:24.185Z,38.27
2018-11-06T02:25:52.484Z,37.33
2018-11-06T02:28:20.764Z,36.20
2018-11-06T02:30:48.986Z,37.50
2018-11-06T02:33:17.102Z,37.50
2018-11-06T02:35:45.391Z,36.37
2018-11-06T02:38:13.806Z,36.70
2018-11-06T02:40:41.951Z,36.67
2018-11-06T02:43:10.189Z,36.37
2018-11-06T02:45:38.694Z,36.07
2018-11-06T02:48:07.148Z,35.73
2018-11-06T02:50:35.426Z,36.97
2018-11-06T02:53:04.827Z,35.78
2018-11-06T02:55:33.219Z,33.80
2018-11-06T02:58:01.448Z,31.43
2018-11-06T03:00:29.720Z,30.57
2018-11-06T03:02:57.854Z,31.77
2018-11-06T03:05:26.313Z,34.07
2018-11-06T03:07:54.587Z,32.90
2018-11-06T03:10:22.947Z,33.67
2018-11-06T03:12:51.319Z,35.57
2018-11-06T03:15:19.387Z,34.43
2018-11-06T03:17:47.503Z,35.13
2018-11-06T03:20:15.725Z,36.33
2018-11-06T03:22:44.279Z,35.07
2018-11-06T03:25:12.604Z,36.13
2018-11-06T03:27:40.859Z,36.13
2018-11-06T03:30:11.422Z,35.13
2018-11-06T03:32:40.005Z,37.20
2018-11-06T03:35:09.015Z,40.83
2018-11-06T03:37:36.947Z,38.13
2018-11-06T03:40:05.496Z,35.67
2018-11-06T03:42:33.716Z,33.93
2018-11-06T03:45:02.201Z,33.50
2018-11-06T03:47:30.490Z,31.67
2018-11-06T03:49:58.859Z,33.17
2018-11-06T03:52:27.264Z,31.20
2018-11-06T03:54:55.543Z,30.50
2018-11-06T03:57:23.957Z,31.53
2018-11-06T03:59:52.443Z,28.90
2018-11-06T04:02:20.599Z,30.47
2018-11-06T04:04:49.040Z,31.20
2018-11-06T04:07:17.270Z,32.60
2018-11-06T04:09:45.639Z,33.90
2018-11-06T04:12:13.839Z,33.00
2018-11-06T04:14:42.295Z,32.90
2018-11-06T04:17:10.599Z,35.20
2018-11-06T04:19:39.059Z,33.23
2018-11-06T04:22:07.134Z,34.03
2018-11-06T04:24:35.263Z,32.63
2018-11-06T04:27:03.771Z,36.70
2018-11-06T04:29:31.819Z,38.60
2018-11-06T04:32:00.291Z,34.47
2018-11-06T04:34:28.575Z,33.53
2018-11-06T04:36:56.990Z,32.67
2018-11-06T04:39:25.142Z,33.13
2018-11-06T04:41:53.195Z,32.40
2018-11-06T04:44:21.439Z,32.30
2018-11-06T04:46:49.747Z,33.27
2018-11-06T04:49:18.392Z,37.10
2018-11-06T04:51:46.630Z,34.43
2018-11-06T04:54:14.735Z,36.37
2018-11-06T04:56:43.227Z,38.63
2018-11-06T04:59:11.787Z,47.77
2018-11-06T05:01:39.999Z,38.13
2018-11-06T05:04:08.548Z,37.23
2018-11-06T05:06:36.729Z,41.30
2018-11-06T05:09:06.987Z,42.23
2018-11-06T05:11:35.340Z,41.07
2018-11-06T05:14:03.735Z,40.57
2018-11-06T05:16:32.108Z,54.23
2018-11-06T05:19:00.208Z,43.23
2018-11-06T05:21:28.546Z,39.63
2018-11-06T05:23:56.755Z,41.27
2018-11-06T05:26:25.207Z,41.13
2018-11-06T05:28:53.314Z,36.17
2018-11-06T05:31:21.615Z,38.43
2018-11-06T05:33:50.027Z,42.17
2018-11-06T05:36:18.069Z,41.23
2018-11-06T05:38:46.255Z,41.63
2018-11-06T05:41:14.659Z,40.17
2018-11-06T05:43:42.791Z,41.40
2018-11-06T05:46:11.228Z,39.13
2018-11-06T05:48:39.311Z,40.00
2018-11-06T05:51:07.856Z,39.27
2018-11-06T05:53:36.034Z,39.20
2018-11-06T05:56:04.531Z,39.00
2018-11-06T05:58:32.785Z,40.27
2018-11-06T06:01:01.133Z,41.40
2018-11-06T06:03:29.336Z,40.47
2018-11-06T06:05:57.639Z,39.43
2018-11-06T06:08:25.927Z,42.63
2018-11-06T06:10:54.225Z,41.05
2018-11-06T06:13:22.644Z,38.43
2018-11-06T06:15:50.910Z,37.60
2018-11-06T06:18:19.184Z,38.23
2018-11-06T06:20:47.491Z,41.20
2018-11-06T06:23:15.702Z,46.37
2018-11-06T06:25:43.786Z,46.70
2018-11-06T06:28:12.177Z,46.27
2018-11-06T06:30:40.576Z,43.27
2018-11-06T06:33:08.875Z,39.93
2018-11-06T06:35:37.342Z,41.07
2018-11-06T06:38:05.619Z,42.53
2018-11-06T06:40:34.092Z,45.27
2018-11-06T06:43:02.587Z,43.30
2018-11-06T06:45:30.876Z,43.20
2018-11-06T06:47:59.119Z,40.83
2018-11-06T06:50:27.631Z,41.10
2018-11-06T06:52:55.895Z,38.57
2018-11-06T06:55:24.358Z,39.03
2018-11-06T06:57:52.390Z,39.10
2018-11-06T07:00:22.160Z,35.30
2018-11-06T07:02:50.200Z,33.07
2018-11-06T07:05:21.683Z,32.27
2018-11-06T07:07:49.847Z,31.97
2018-11-06T07:10:19.594Z,31.27
2018-11-06T07:12:48.207Z,31.63
2018-11-06T07:15:17.739Z,31.70
2018-11-06T07:17:47.069Z,32.50
2018-11-06T07:20:18.606Z,29.30
2018-11-06T07:22:47.094Z,26.17
2018-11-06T07:25:15.696Z,27.23
2018-11-06T07:27:44.980Z,28.47
2018-11-06T07:30:15.555Z,29.67
2018-11-06T07:32:44.115Z,27.60
2018-11-06T07:35:13.136Z,28.70
2018-11-06T07:37:41.786Z,25.20
2018-11-06T07:40:12.271Z,27.47
2018-11-06T07:42:40.319Z,23.83
2018-11-06T07:45:11.968Z,25.57
2018-11-06T07:47:40.146Z,22.67
2018-11-06T07:50:08.937Z,26.00
2018-11-06T07:52:37.645Z,24.50
2018-11-06T07:55:07.071Z,26.40
2018-11-06T07:57:35.390Z,23.53
2018-11-06T08:00:03.792Z,26.57
2018-11-06T08:02:37.343Z,26.27
2018-11-06T08:05:05.615Z,28.67
2018-11-06T08:07:33.932Z,26.80
2018-11-06T08:10:02.204Z,26.37
2018-11-06T08:12:30.709Z,27.20
2018-11-06T08:14:58.926Z,26.97
2018-11-06T08:17:27.185Z,31.50
2018-11-06T08:19:54.900Z,30.87
2018-11-06T08:22:22.584Z,26.27
2018-11-06T08:24:50.779Z,27.40
2018-11-06T08:27:19.019Z,33.43
2018-11-06T08:29:47.138Z,31.53
2018-11-06T08:32:16.084Z,32.10
2018-11-06T08:34:43.831Z,28.60
2018-11-06T08:37:12.023Z,27.67
2018-11-06T08:39:40.220Z,32.30
2018-11-06T08:42:08.683Z,30.60
2018-11-06T08:44:36.972Z,28.80
2018-11-06T08:47:05.486Z,29.60
2018-11-06T08:49:33.623Z,31.03
2018-11-06T08:52:01.825Z,30.93
2018-11-06T08:54:29.790Z,32.60
2018-11-06T08:56:58.115Z,35.33
2018-11-06T08:59:26.432Z,37.40
2018-11-06T09:01:54.935Z,33.90
2018-11-06T09:04:28.493Z,31.47
2018-11-06T09:06:56.795Z,32.30
2018-11-06T09:09:25.079Z,32.60
2018-11-06T09:11:53.496Z,34.30
2018-11-06T09:14:21.659Z,32.77
2018-11-06T09:16:50.144Z,35.00
2018-11-06T09:19:18.334Z,30.13
2018-11-06T09:21:47.518Z,32.37
2018-11-06T09:24:15.736Z,29.73
2018-11-06T09:26:44.227Z,28.33
2018-11-06T09:29:12.504Z,31.43
2018-11-06T09:31:40.967Z,28.07
2018-11-06T09:34:09.176Z,26.70
2018-11-06T09:36:37.601Z,25.60
2018-11-06T09:39:08.444Z,30.37
2018-11-06T09:41:36.740Z,31.20
2018-11-06T09:44:04.832Z,32.43
2018-11-06T09:46:33.093Z,33.53
2018-11-06T09:49:01.359Z,34.67
2018-11-06T09:51:29.652Z,33.53
2018-11-06T09:53:57.906Z,33.50
2018-11-06T09:56:26.224Z,32.27
2018-11-06T09:58:54.682Z,31.73
2018-11-06T10:01:22.924Z,34.37
2018-11-06T10:03:51.239Z,36.07
2018-11-06T10:06:19.528Z,32.70
2018-11-06T10:08:47.930Z,32.17
2018-11-06T10:11:16.319Z,31.93
2018-11-06T10:13:44.556Z,34.37
2018-11-06T10:16:13.002Z,31.10
2018-11-06T10:18:41.344Z,32.07
2018-11-06T10:21:09.833Z,33.60
2018-11-06T10:23:37.964Z,31.73
2018-11-06T10:26:06.139Z,32.03
2018-11-06T10:28:34.227Z,31.87
2018-11-06T10:31:02.495Z,31.83
2018-11-06T10:33:30.776Z,33.87
2018-11-06T10:35:58.915Z,34.63
2018-11-06T10:38:27.168Z,35.43
2018-11-06T10:40:55.406Z,34.03
2018-11-06T10:43:23.704Z,35.07
2018-11-06T10:45:52.146Z,35.93
2018-11-06T10:48:20.611Z,36.87
2018-11-06T10:50:48.867Z,39.20
2018-11-06T10:53:17.323Z,38.03
2018-11-06T10:55:45.911Z,34.87
2018-11-06T10:58:14.210Z,33.80
2018-11-06T11:00:48.329Z,35.67
2018-11-06T11:03:22.296Z,36.43
2018-11-06T11:05:50.448Z,34.77
2018-11-06T11:08:18.862Z,33.00
2018-11-06T11:10:46.951Z,33.43
2018-11-06T11:13:15.317Z,34.10
2018-11-06T11:15:43.683Z,34.73
2018-11-06T11:18:11.775Z,34.47
2018-11-06T11:20:40.084Z,36.67
2018-11-06T11:23:08.539Z,37.13
2018-11-06T11:25:37.132Z,35.63
2018-11-06T11:28:05.344Z,35.33
2018-11-06T11:30:33.561Z,38.53
2018-11-06T11:33:01.837Z,38.00
2018-11-06T11:35:30.189Z,34.07
2018-11-06T11:37:57.968Z,35.43
2018-11-06T11:40:26.270Z,37.90
2018-11-06T11:42:54.736Z,38.23
2018-11-06T11:45:23.008Z,38.20
2018-11-06T11:47:51.475Z,36.10
2018-11-06T11:50:19.428Z,35.73
2018-11-06T11:52:47.643Z,35.20
2018-11-06T11:55:16.006Z,32.73
2018-11-06T11:57:44.014Z,31.80
2018-11-06T12:00:17.695Z,29.30
2018-11-06T12:02:45.867Z,31.27
2018-11-06T12:05:14.337Z,28.83
2018-11-06T12:07:42.579Z,33.33
2018-11-06T12:10:11.494Z,32.07
2018-11-06T12:12:39.930Z,29.33
2018-11-06T12:15:09.894Z,32.73
2018-11-06T12:17:38.249Z,40.70
2018-11-06T12:20:06.508Z,34.40
2018-11-06T12:22:34.760Z,31.97
2018-11-06T12:25:03.224Z,31.33
2018-11-06T12:27:31.499Z,32.70
2018-11-06T12:29:59.743Z,29.90
2018-11-06T12:32:28.031Z,30.23
2018-11-06T12:34:56.107Z,31.87
2018-11-06T12:37:24.387Z,29.23
2018-11-06T12:39:52.920Z,28.43
2018-11-06T12:42:21.295Z,28.07
2018-11-06T12:44:49.608Z,25.27
2018-11-06T12:47:17.921Z,24.15
2018-11-06T12:49:45.661Z,24.43
2018-11-06T12:52:14.039Z,24.40
2018-11-06T12:54:42.351Z,25.87
2018-11-06T12:57:10.612Z,24.87
2018-11-06T12:59:39.068Z,24.83
2018-11-06T13:02:07.371Z,23.73
2018-11-06T13:04:35.449Z,25.70
2018-11-06T13:07:03.767Z,28.33
2018-11-06T13:09:32.166Z,26.57
2018-11-06T13:12:00.460Z,23.97
2018-11-06T13:14:28.723Z,24.57
2018-11-06T13:16:57.020Z,22.80
2018-11-06T13:19:25.543Z,21.53
2018-11-06T13:21:53.727Z,20.17
2018-11-06T13:24:21.636Z,23.20
2018-11-06T13:26:49.894Z,22.40
2018-11-06T13:29:18.136Z,23.70
2018-11-06T13:31:46.252Z,20.77
2018-11-06T13:34:14.530Z,25.13
2018-11-06T13:36:42.617Z,21.90
2018-11-06T13:39:12.869Z,22.20
2018-11-06T13:41:41.690Z,29.97
2018-11-06T13:44:10.329Z,24.10
2018-11-06T13:46:38.207Z,22.83
2018-11-06T13:49:06.232Z,26.33
2018-11-06T13:51:34.700Z,25.00
2018-11-06T13:54:02.936Z,27.00
2018-11-06T13:56:31.350Z,23.47
2018-11-06T13:58:59.455Z,25.67
2018-11-06T14:01:27.807Z,26.37
2018-11-06T14:03:56.196Z,24.07
2018-11-06T14:06:24.324Z,23.30
2018-11-06T14:08:52.471Z,24.17
2018-11-06T14:11:20.707Z,36.33
2018-11-06T14:13:49.164Z,25.53
2018-11-06T14:16:17.410Z,25.17
2018-11-06T14:18:45.775Z,27.03
2018-11-06T14:21:13.843Z,24.40
2018-11-06T14:23:42.121Z,24.83
2018-11-06T14:26:10.565Z,24.60
2018-11-06T14:28:39.027Z,22.37
2018-11-06T14:31:07.141Z,24.17
2018-11-06T14:33:35.455Z,26.23
2018-11-06T14:36:03.875Z,23.37
2018-11-06T14:38:32.077Z,26.33
2018-11-06T14:41:00.430Z,25.20
2018-11-06T14:43:28.204Z,26.00
2018-11-06T14:45:56.205Z,25.50
2018-11-06T14:48:24.856Z,25.67
2018-11-06T14:50:53.156Z,27.47
2018-11-06T14:53:21.395Z,27.63
2018-11-06T14:55:49.779Z,25.67
2018-11-06T14:58:18.010Z,25.37
2018-11-06T15:00:46.437Z,27.77
2018-11-06T15:03:14.575Z,24.83
2018-11-06T15:05:42.659Z,32.00
2018-11-06T15:08:11.117Z,20.73
2018-11-06T15:10:39.359Z,24.23
2018-11-06T15:13:07.574Z,26.10
2018-11-06T15:15:35.691Z,28.63
2018-11-06T15:18:04.173Z,24.23
2018-11-06T15:20:32.463Z,31.07
2018-11-06T15:23:01.016Z,29.57
2018-11-06T15:25:29.362Z,26.23
2018-11-06T15:27:57.489Z,26.40
2018-11-06T15:30:25.779Z,20.60
2018-11-06T15:32:54.227Z,23.17
2018-11-06T15:35:22.523Z,23.83
2018-11-06T15:37:50.248Z,30.27
2018-11-06T15:40:19.223Z,29.90
2018-11-06T15:42:47.036Z,28.50
2018-11-06T15:45:16.631Z,31.60
2018-11-06T15:47:45.388Z,33.70
2018-11-06T15:50:14.719Z,37.10
2018-11-06T15:52:43.755Z,34.63
2018-11-06T15:55:11.983Z,37.27
2018-11-06T15:57:40.498Z,36.00
2018-11-06T16:00:14.080Z,39.07
2018-11-06T16:02:42.502Z,36.93
2018-11-06T16:05:10.659Z,38.20
2018-11-06T16:07:38.906Z,40.37
2018-11-06T16:10:09.919Z,40.37
2018-11-06T16:12:37.716Z,39.73
2018-11-06T16:15:06.194Z,39.10
2018-11-06T16:17:34.294Z,35.60
2018-11-06T16:20:02.055Z,37.13
2018-11-06T16:22:30.304Z,36.30
2018-11-06T16:24:58.045Z,39.07
2018-11-06T16:27:25.827Z,38.93
2018-11-06T16:29:54.077Z,38.70
2018-11-06T16:32:22.512Z,36.67
2018-11-06T16:34:50.841Z,40.67
2018-11-06T16:37:19.667Z,44.93
2018-11-06T16:39:48.112Z,41.90
2018-11-06T16:42:16.591Z,48.13
2018-11-06T16:44:44.863Z,50.53
2018-11-06T16:47:13.375Z,46.83
2018-11-06T16:49:41.659Z,44.10
2018-11-06T16:52:10.207Z,47.53
2018-11-06T16:54:38.407Z,40.30
2018-11-06T16:57:06.741Z,47.33
2018-11-06T16:59:35.020Z,41.70
2018-11-06T17:02:03.074Z,38.90
2018-11-06T17:04:31.247Z,33.07
2018-11-06T17:06:59.576Z,36.77
2018-11-06T17:09:27.694Z,44.17
2018-11-06T17:11:56.136Z,40.37
2018-11-06T17:14:24.489Z,45.77
2018-11-06T17:16:52.895Z,41.37
2018-11-06T17:19:21.179Z,39.13
2018-11-06T17:21:49.452Z,39.00
2018-11-06T17:24:17.944Z,38.53
2018-11-06T17:26:46.427Z,37.70
2018-11-06T17:29:14.308Z,35.10
2018-11-06T17:31:42.076Z,37.97
2018-11-06T17:34:09.807Z,35.10
2018-11-06T17:36:38.332Z,34.27
2018-11-06T17:39:08.970Z,34.00
2018-11-06T17:41:36.867Z,30.63
2018-11-06T17:44:05.378Z,30.10
2018-11-06T17:46:33.619Z,31.03
2018-11-06T17:49:02.144Z,34.60
2018-11-06T17:51:30.163Z,30.43
2018-11-06T17:53:58.607Z,31.70
2018-11-06T17:56:26.997Z,29.63
2018-11-06T17:58:54.927Z,30.83
2018-11-06T18:01:22.639Z,32.47
2018-11-06T18:03:50.417Z,35.57
2018-11-06T18:06:18.201Z,33.77
2018-11-06T18:08:46.011Z,37.47
2018-11-06T18:11:13.755Z,41.68
2018-11-06T18:13:41.551Z,35.10
2018-11-06T18:16:09.296Z,35.87
2018-11-06T18:18:37.043Z,38.77
2018-11-06T18:21:05.256Z,38.07
2018-11-06T18:23:33.643Z,37.97
2018-11-06T18:26:01.892Z,35.93
2018-11-06T18:28:30.255Z,37.53
2018-11-06T18:30:58.480Z,37.10
2018-11-06T18:33:26.884Z,37.70
2018-11-06T18:35:55.266Z,36.77
2018-11-06T18:38:23.494Z,36.83
2018-11-06T18:40:51.185Z,39.30
2018-11-06T18:43:19.658Z,38.17
2018-11-06T18:45:47.721Z,40.67
2018-11-06T18:48:16.240Z,40.53
2018-11-06T18:50:44.544Z,41.30
2018-11-06T18:53:12.928Z,41.07
2018-11-06T18:55:41.053Z,37.77
2018-11-06T18:58:09.697Z,40.00
2018-11-06T19:00:37.424Z,40.27
2018-11-06T19:03:05.244Z,42.43
2018-11-06T19:05:33.714Z,40.87
2018-11-06T19:08:01.771Z,42.67
2018-11-06T19:10:29.874Z,42.17
2018-11-06T19:12:58.179Z,47.87
2018-11-06T19:15:26.443Z,43.23
2018-11-06T19:17:54.898Z,42.87
2018-11-06T19:20:23.207Z,44.10
2018-11-06T19:22:51.675Z,49.10
2018-11-06T19:25:19.959Z,50.90
2018-11-06T19:27:48.439Z,49.53
2018-11-06T19:30:17.910Z,48.93
2018-11-06T19:32:45.986Z,50.20
2018-11-06T19:35:14.592Z,49.77
2018-11-06T19:37:42.868Z,46.10
2018-11-06T19:40:12.424Z,47.37
2018-11-06T19:42:41.520Z,45.97
2018-11-06T19:45:10.223Z,45.63
2018-11-06T19:47:38.567Z,46.27
2018-11-06T19:50:08.472Z,44.37
2018-11-06T19:52:36.656Z,46.40
2018-11-06T19:55:05.563Z,45.60
2018-11-06T19:57:33.932Z,46.33
2018-11-06T20:00:02.161Z,48.53
2018-11-06T20:02:30.839Z,45.67
2018-11-06T20:04:59.139Z,46.30
2018-11-06T20:07:27.602Z,45.40
2018-11-06T20:09:56.036Z,45.57
2018-11-06T20:12:24.191Z,48.47
2018-11-06T20:14:52.469Z,49.37
2018-11-06T20:17:20.967Z,50.17
2018-11-06T20:19:50.071Z,50.03
2018-11-06T20:22:18.590Z,50.13
2018-11-06T20:24:47.050Z,45.80
2018-11-06T20:27:15.517Z,49.13
2018-11-06T20:29:44.643Z,47.57
2018-11-06T20:32:13.428Z,46.50
2018-11-06T20:34:41.771Z,48.33
2018-11-06T20:37:10.155Z,46.70
2018-11-06T20:39:38.703Z,49.13
2018-11-06T20:42:06.499Z,59.30
2018-11-06T20:44:34.698Z,56.20
2018-11-06T20:47:03.063Z,47.20
2018-11-06T20:49:31.713Z,49.60
2018-11-06T20:51:59.825Z,50.43
2018-11-06T20:54:28.088Z,65.93
2018-11-06T20:56:56.411Z,64.10
2018-11-06T20:59:24.674Z,58.27
2018-11-06T21:01:53.115Z,56.23
2018-11-06T21:04:20.976Z,57.48
2018-11-06T21:06:48.757Z,55.40
2018-11-06T21:09:16.940Z,56.30
2018-11-06T21:11:45.302Z,54.17
2018-11-06T21:14:13.456Z,55.13
2018-11-06T21:16:41.780Z,52.23
2018-11-06T21:19:09.530Z,51.10
2018-11-06T21:21:37.690Z,52.77
2018-11-06T21:24:05.844Z,53.93
2018-11-06T21:26:34.264Z,55.67
2018-11-06T21:29:02.498Z,55.50
2018-11-06T21:31:30.661Z,50.10
2018-11-06T21:33:59.190Z,48.80
2018-11-06T21:36:27.401Z,46.13
2018-11-06T21:38:55.787Z,44.00
2018-11-06T21:41:23.948Z,43.43
2018-11-06T21:43:52.016Z,43.27
2018-11-06T21:46:20.456Z,44.93
2018-11-06T21:48:48.567Z,42.63
2018-11-06T21:51:16.809Z,42.77
2018-11-06T21:53:45.284Z,42.87
2018-11-06T21:56:13.406Z,37.13
2018-11-06T21:58:41.812Z,39.77
2018-11-06T22:01:09.732Z,35.43
2018-11-06T22:03:38.035Z,35.53
2018-11-06T22:06:06.295Z,37.73
2018-11-06T22:08:34.559Z,37.87
2018-11-06T22:11:03.087Z,36.37
2018-11-06T22:13:31.458Z,37.37
2018-11-06T22:15:59.417Z,35.97
2018-11-06T22:18:27.662Z,37.90
2018-11-06T22:20:55.866Z,37.40
2018-11-06T22:23:23.966Z,38.17
2018-11-06T22:25:52.301Z,41.27
2018-11-06T22:28:20.776Z,43.07
2018-11-06T22:30:49.022Z,46.67
2018-11-06T22:33:17.350Z,43.57
2018-11-06T22:35:45.672Z,45.10
2018-11-06T22:38:13.883Z,47.57
2018-11-06T22:40:42.158Z,49.70
2018-11-06T22:43:10.590Z,44.17
2018-11-06T22:45:38.854Z,45.63
2018-11-06T22:48:06.865Z,44.00
2018-11-06T22:50:34.556Z,44.83
2018-11-06T22:53:02.374Z,46.43
2018-11-06T22:55:30.198Z,42.27
2018-11-06T22:57:57.907Z,41.40
2018-11-06T23:00:31.215Z,40.93
2018-11-06T23:02:58.959Z,40.70
2018-11-06T23:05:26.717Z,39.67
2018-11-06T23:07:59.834Z,39.93
2018-11-06T23:10:27.617Z,41.17
2018-11-06T23:12:55.352Z,40.87
2018-11-06T23:15:23.105Z,41.60
2018-11-06T23:17:50.879Z,41.43
2018-11-06T23:20:18.628Z,36.53
2018-11-06T23:22:46.351Z,34.37
2018-11-06T23:25:14.077Z,36.50
2018-11-06T23:27:41.876Z,36.47
2018-11-06T23:30:11.854Z,36.37
2018-11-06T23:32:39.627Z,38.67
2018-11-06T23:35:07.395Z,40.60
2018-11-06T23:37:35.156Z,42.57
2018-11-06T23:40:02.895Z,39.87
2018-11-06T23:42:31.370Z,41.03
2018-11-06T23:44:59.733Z,41.47
2018-11-06T23:47:28.243Z,43.83
2018-11-06T23:49:56.432Z,45.47
2018-11-06T23:52:24.743Z,49.37
2018-11-06T23:54:53.195Z,55.13
2018-11-06T23:57:21.452Z,56.43
2018-11-06T23:59:49.692Z,53.57
